sensor_id;sensor_type;location;lat;lon;timestamp;P1;durP1;ratioP1;P2;durP2;ratioP2
9536;SDS011;4807;48.024;11.726;2023-01-28T00:02:27;16.77;;;9.27;;
9536;SDS011;4807;48.024;11.726;2023-01-28T00:05:36;17.33;;;10.50;;
9536;SDS011;4807;48.024;11.726;2023-01-28T00:08:44;17.23;;;10.10;;
9536;SDS011;4807;48.024;11.726;2023-01-28T00:11:54;16.43;;;10.13;;
9536;SDS011;4807;48.024;11.726;2023-01-28T00:15:03;17.33;;;10.20;;
9536;SDS011;4807;48.024;11.726;2023-01-28T00:18:12;18.23;;;11.00;;
9536;SDS011;4807;48.024;11.726;2023-01-28T00:21:21;16.10;;;10.10;;
9536;SDS011;4807;48.024;11.726;2023-01-28T00:24:29;18.33;;;11.33;;
9536;SDS011;4807;48.024;11.726;2023-01-28T00:27:39;18.60;;;10.50;;
9536;SDS011;4807;48.024;11.726;2023-01-28T00:30:48;19.80;;;11.10;;
9536;SDS011;4807;48.024;11.726;2023-01-28T00:33:56;17.27;;;10.20;;
9536;SDS011;4807;48.024;11.726;2023-01-28T00:37:05;18.10;;;10.70;;
9536;SDS011;4807;48.024;11.726;2023-01-28T00:40:13;18.07;;;10.73;;
9536;SDS011;4807;48.024;11.726;2023-01-28T00:43:23;17.13;;;9.57;;
9536;SDS011;4807;48.024;11.726;2023-01-28T00:46:31;16.77;;;10.27;;
9536;SDS011;4807;48.024;11.726;2023-01-28T00:49:40;19.10;;;10.97;;
9536;SDS011;4807;48.024;11.726;2023-01-28T00:52:48;17.93;;;10.63;;
9536;SDS011;4807;48.024;11.726;2023-01-28T00:55:56;19.80;;;12.00;;
9536;SDS011;4807;48.024;11.726;2023-01-28T00:59:07;20.97;;;11.93;;
9536;SDS011;4807;48.024;11.726;2023-01-28T01:02:19;17.57;;;10.23;;
9536;SDS011;4807;48.024;11.726;2023-01-28T01:05:27;20.17;;;11.93;;
9536;SDS011;4807;48.024;11.726;2023-01-28T01:08:36;18.87;;;10.70;;
9536;SDS011;4807;48.024;11.726;2023-01-28T01:11:48;18.10;;;10.80;;
9536;SDS011;4807;48.024;11.726;2023-01-28T01:14:58;21.93;;;10.87;;
9536;SDS011;4807;48.024;11.726;2023-01-28T01:18:06;17.23;;;10.93;;
9536;SDS011;4807;48.024;11.726;2023-01-28T01:21:15;18.87;;;11.23;;
9536;SDS011;4807;48.024;11.726;2023-01-28T01:24:27;21.10;;;11.87;;
9536;SDS011;4807;48.024;11.726;2023-01-28T01:27:39;20.77;;;10.80;;
9536;SDS011;4807;48.024;11.726;2023-01-28T01:30:49;21.73;;;12.00;;
9536;SDS011;4807;48.024;11.726;2023-01-28T01:34:06;18.97;;;11.00;;
9536;SDS011;4807;48.024;11.726;2023-01-28T01:37:16;21.77;;;12.23;;
9536;SDS011;4807;48.024;11.726;2023-01-28T01:40:24;17.07;;;11.10;;
9536;SDS011;4807;48.024;11.726;2023-01-28T01:43:45;19.67;;;11.30;;
9536;SDS011;4807;48.024;11.726;2023-01-28T01:46:59;18.63;;;11.40;;
9536;SDS011;4807;48.024;11.726;2023-01-28T01:50:09;18.40;;;9.90;;
9536;SDS011;4807;48.024;11.726;2023-01-28T01:53:29;21.00;;;11.67;;
9536;SDS011;4807;48.024;11.726;2023-01-28T01:56:39;25.50;;;11.97;;
9536;SDS011;4807;48.024;11.726;2023-01-28T01:59:54;20.00;;;11.20;;
9536;SDS011;4807;48.024;11.726;2023-01-28T02:03:20;20.03;;;10.83;;
9536;SDS011;4807;48.024;11.726;2023-01-28T02:06:35;16.10;;;10.03;;
9536;SDS011;4807;48.024;11.726;2023-01-28T02:09:46;20.20;;;10.97;;
9536;SDS011;4807;48.024;11.726;2023-01-28T02:12:56;18.67;;;11.27;;
9536;SDS011;4807;48.024;11.726;2023-01-28T02:16:06;19.73;;;10.90;;
9536;SDS011;4807;48.024;11.726;2023-01-28T02:19:18;18.30;;;10.00;;
9536;SDS011;4807;48.024;11.726;2023-01-28T02:22:42;18.40;;;10.47;;
9536;SDS011;4807;48.024;11.726;2023-01-28T02:31:30;16.27;;;10.37;;
9536;SDS011;4807;48.024;11.726;2023-01-28T02:34:49;21.13;;;11.27;;
9536;SDS011;4807;48.024;11.726;2023-01-28T02:38:05;20.23;;;9.90;;
9536;SDS011;4807;48.024;11.726;2023-01-28T02:41:20;18.30;;;11.10;;
9536;SDS011;4807;48.024;11.726;2023-01-28T02:44:36;18.07;;;11.60;;
9536;SDS011;4807;48.024;11.726;2023-01-28T02:47:46;18.43;;;10.87;;
9536;SDS011;4807;48.024;11.726;2023-01-28T02:51:08;18.03;;;11.07;;
9536;SDS011;4807;48.024;11.726;2023-01-28T02:54:36;19.03;;;10.50;;
9536;SDS011;4807;48.024;11.726;2023-01-28T02:57:55;18.17;;;10.20;;
9536;SDS011;4807;48.024;11.726;2023-01-28T03:01:17;21.30;;;11.60;;
9536;SDS011;4807;48.024;11.726;2023-01-28T03:04:36;16.63;;;10.77;;
9536;SDS011;4807;48.024;11.726;2023-01-28T03:07:56;17.90;;;10.93;;
9536;SDS011;4807;48.024;11.726;2023-01-28T03:11:05;17.60;;;9.87;;
9536;SDS011;4807;48.024;11.726;2023-01-28T03:14:31;17.73;;;9.87;;
9536;SDS011;4807;48.024;11.726;2023-01-28T03:18:00;14.10;;;9.40;;
9536;SDS011;4807;48.024;11.726;2023-01-28T03:21:35;12.83;;;8.70;;
9536;SDS011;4807;48.024;11.726;2023-01-28T03:25:11;14.57;;;9.17;;
9536;SDS011;4807;48.024;11.726;2023-01-28T03:28:43;14.73;;;8.67;;
9536;SDS011;4807;48.024;11.726;2023-01-28T03:32:13;15.17;;;9.23;;
9536;SDS011;4807;48.024;11.726;2023-01-28T03:35:40;17.27;;;9.93;;
9536;SDS011;4807;48.024;11.726;2023-01-28T03:39:10;18.43;;;9.63;;
9536;SDS011;4807;48.024;11.726;2023-01-28T03:42:22;18.17;;;9.83;;
9536;SDS011;4807;48.024;11.726;2023-01-28T03:45:41;16.87;;;9.27;;
9536;SDS011;4807;48.024;11.726;2023-01-28T03:48:51;16.00;;;9.93;;
9536;SDS011;4807;48.024;11.726;2023-01-28T03:52:00;16.87;;;9.97;;
9536;SDS011;4807;48.024;11.726;2023-01-28T03:55:10;18.30;;;10.33;;
9536;SDS011;4807;48.024;11.726;2023-01-28T03:58:21;15.00;;;8.80;;
9536;SDS011;4807;48.024;11.726;2023-01-28T04:01:32;15.60;;;9.23;;
9536;SDS011;4807;48.024;11.726;2023-01-28T04:04:41;17.57;;;9.47;;
9536;SDS011;4807;48.024;11.726;2023-01-28T04:07:49;14.10;;;8.80;;
9536;SDS011;4807;48.024;11.726;2023-01-28T04:11:22;14.77;;;8.23;;
9536;SDS011;4807;48.024;11.726;2023-01-28T04:14:31;17.70;;;8.43;;
9536;SDS011;4807;48.024;11.726;2023-01-28T04:17:46;16.97;;;9.73;;
9536;SDS011;4807;48.024;11.726;2023-01-28T04:21:13;14.13;;;8.23;;
9536;SDS011;4807;48.024;11.726;2023-01-28T04:24:22;15.50;;;8.27;;
9536;SDS011;4807;48.024;11.726;2023-01-28T04:27:33;15.47;;;8.97;;
9536;SDS011;4807;48.024;11.726;2023-01-28T04:30:53;17.00;;;10.00;;
9536;SDS011;4807;48.024;11.726;2023-01-28T04:34:21;13.27;;;8.23;;
9536;SDS011;4807;48.024;11.726;2023-01-28T04:37:53;15.37;;;8.67;;
9536;SDS011;4807;48.024;11.726;2023-01-28T04:41:20;14.93;;;8.73;;
9536;SDS011;4807;48.024;11.726;2023-01-28T04:44:30;15.87;;;8.87;;
9536;SDS011;4807;48.024;11.726;2023-01-28T04:47:55;16.50;;;9.80;;
9536;SDS011;4807;48.024;11.726;2023-01-28T04:51:24;16.63;;;9.57;;
9536;SDS011;4807;48.024;11.726;2023-01-28T04:54:48;15.53;;;9.50;;
9536;SDS011;4807;48.024;11.726;2023-01-28T04:57:56;18.30;;;11.77;;
9536;SDS011;4807;48.024;11.726;2023-01-28T05:01:07;18.97;;;11.07;;
9536;SDS011;4807;48.024;11.726;2023-01-28T05:04:15;19.33;;;10.63;;
9536;SDS011;4807;48.024;11.726;2023-01-28T05:07:24;13.27;;;9.53;;
9536;SDS011;4807;48.024;11.726;2023-01-28T05:10:33;17.77;;;10.63;;
9536;SDS011;4807;48.024;11.726;2023-01-28T05:13:42;17.40;;;9.53;;
9536;SDS011;4807;48.024;11.726;2023-01-28T05:16:53;17.17;;;10.03;;
9536;SDS011;4807;48.024;11.726;2023-01-28T05:20:02;15.90;;;9.90;;
9536;SDS011;4807;48.024;11.726;2023-01-28T05:23:12;19.17;;;11.00;;
9536;SDS011;4807;48.024;11.726;2023-01-28T05:26:28;15.00;;;9.43;;
9536;SDS011;4807;48.024;11.726;2023-01-28T05:29:36;18.53;;;10.23;;
9536;SDS011;4807;48.024;11.726;2023-01-28T05:32:46;20.37;;;11.47;;
9536;SDS011;4807;48.024;11.726;2023-01-28T05:36:00;17.43;;;10.53;;
9536;SDS011;4807;48.024;11.726;2023-01-28T05:39:08;17.03;;;10.60;;
9536;SDS011;4807;48.024;11.726;2023-01-28T05:42:17;16.80;;;10.00;;
9536;SDS011;4807;48.024;11.726;2023-01-28T05:45:31;21.53;;;11.03;;
9536;SDS011;4807;48.024;11.726;2023-01-28T05:48:49;22.90;;;12.37;;
9536;SDS011;4807;48.024;11.726;2023-01-28T05:52:30;19.40;;;10.93;;
9536;SDS011;4807;48.024;11.726;2023-01-28T05:55:39;23.27;;;11.40;;
9536;SDS011;4807;48.024;11.726;2023-01-28T05:58:47;21.73;;;11.10;;
9536;SDS011;4807;48.024;11.726;2023-01-28T06:01:55;21.43;;;11.40;;
9536;SDS011;4807;48.024;11.726;2023-01-28T06:05:06;20.07;;;11.27;;
9536;SDS011;4807;48.024;11.726;2023-01-28T06:08:15;22.10;;;12.53;;
9536;SDS011;4807;48.024;11.726;2023-01-28T06:11:24;20.50;;;10.97;;
9536;SDS011;4807;48.024;11.726;2023-01-28T06:14:36;20.00;;;11.77;;
9536;SDS011;4807;48.024;11.726;2023-01-28T06:17:56;22.43;;;11.13;;
9536;SDS011;4807;48.024;11.726;2023-01-28T06:21:08;22.27;;;12.27;;
9536;SDS011;4807;48.024;11.726;2023-01-28T06:24:17;23.13;;;11.47;;
9536;SDS011;4807;48.024;11.726;2023-01-28T06:27:26;19.40;;;11.20;;
9536;SDS011;4807;48.024;11.726;2023-01-28T06:30:34;22.23;;;11.80;;
9536;SDS011;4807;48.024;11.726;2023-01-28T06:33:42;25.67;;;12.10;;
9536;SDS011;4807;48.024;11.726;2023-01-28T06:36:53;19.83;;;10.93;;
9536;SDS011;4807;48.024;11.726;2023-01-28T06:40:01;21.23;;;11.93;;
9536;SDS011;4807;48.024;11.726;2023-01-28T06:43:10;19.50;;;10.77;;
9536;SDS011;4807;48.024;11.726;2023-01-28T06:46:18;18.53;;;10.30;;
9536;SDS011;4807;48.024;11.726;2023-01-28T06:49:27;25.03;;;12.33;;
9536;SDS011;4807;48.024;11.726;2023-01-28T06:52:36;19.93;;;12.23;;
9536;SDS011;4807;48.024;11.726;2023-01-28T06:55:47;20.30;;;11.87;;
9536;SDS011;4807;48.024;11.726;2023-01-28T06:58:56;18.53;;;10.40;;
9536;SDS011;4807;48.024;11.726;2023-01-28T07:02:04;21.67;;;10.77;;
9536;SDS011;4807;48.024;11.726;2023-01-28T07:05:13;18.47;;;10.73;;
9536;SDS011;4807;48.024;11.726;2023-01-28T07:08:22;18.73;;;10.97;;
9536;SDS011;4807;48.024;11.726;2023-01-28T07:11:31;20.33;;;10.83;;
9536;SDS011;4807;48.024;11.726;2023-01-28T07:14:39;20.43;;;10.90;;
9536;SDS011;4807;48.024;11.726;2023-01-28T07:17:48;20.90;;;10.93;;
9536;SDS011;4807;48.024;11.726;2023-01-28T07:20:56;19.57;;;11.43;;
9536;SDS011;4807;48.024;11.726;2023-01-28T07:24:06;17.83;;;10.13;;
9536;SDS011;4807;48.024;11.726;2023-01-28T07:27:15;20.80;;;12.03;;
9536;SDS011;4807;48.024;11.726;2023-01-28T07:30:23;21.50;;;12.20;;
9536;SDS011;4807;48.024;11.726;2023-01-28T07:33:31;22.80;;;11.63;;
9536;SDS011;4807;48.024;11.726;2023-01-28T07:36:40;22.97;;;11.83;;
9536;SDS011;4807;48.024;11.726;2023-01-28T07:39:49;17.83;;;10.37;;
9536;SDS011;4807;48.024;11.726;2023-01-28T07:42:58;20.07;;;11.20;;
9536;SDS011;4807;48.024;11.726;2023-01-28T07:46:14;17.17;;;10.50;;
9536;SDS011;4807;48.024;11.726;2023-01-28T07:49:22;23.27;;;11.70;;
9536;SDS011;4807;48.024;11.726;2023-01-28T07:52:30;24.47;;;11.40;;
9536;SDS011;4807;48.024;11.726;2023-01-28T07:55:45;20.00;;;10.77;;
9536;SDS011;4807;48.024;11.726;2023-01-28T07:58:53;22.30;;;11.57;;
9536;SDS011;4807;48.024;11.726;2023-01-28T08:02:01;22.70;;;11.73;;
9536;SDS011;4807;48.024;11.726;2023-01-28T08:05:10;20.67;;;11.63;;
9536;SDS011;4807;48.024;11.726;2023-01-28T08:08:18;19.10;;;10.17;;
9536;SDS011;4807;48.024;11.726;2023-01-28T08:11:28;19.07;;;10.67;;
9536;SDS011;4807;48.024;11.726;2023-01-28T08:14:36;17.47;;;10.60;;
9536;SDS011;4807;48.024;11.726;2023-01-28T08:17:45;17.17;;;11.27;;
9536;SDS011;4807;48.024;11.726;2023-01-28T08:20:53;18.40;;;10.30;;
9536;SDS011;4807;48.024;11.726;2023-01-28T08:24:02;14.60;;;9.33;;
9536;SDS011;4807;48.024;11.726;2023-01-28T08:27:13;16.90;;;10.33;;
9536;SDS011;4807;48.024;11.726;2023-01-28T08:30:21;18.40;;;10.47;;
9536;SDS011;4807;48.024;11.726;2023-01-28T08:33:29;17.80;;;9.90;;
9536;SDS011;4807;48.024;11.726;2023-01-28T08:36:38;16.37;;;10.80;;
9536;SDS011;4807;48.024;11.726;2023-01-28T08:39:46;18.30;;;11.27;;
9536;SDS011;4807;48.024;11.726;2023-01-28T08:42:57;20.00;;;11.67;;
9536;SDS011;4807;48.024;11.726;2023-01-28T08:46:06;19.83;;;11.47;;
9536;SDS011;4807;48.024;11.726;2023-01-28T08:49:14;19.30;;;11.17;;
9536;SDS011;4807;48.024;11.726;2023-01-28T08:52:22;17.97;;;10.20;;
9536;SDS011;4807;48.024;11.726;2023-01-28T08:55:31;17.70;;;10.27;;
9536;SDS011;4807;48.024;11.726;2023-01-28T08:58:43;17.33;;;10.57;;
9536;SDS011;4807;48.024;11.726;2023-01-28T09:01:52;19.83;;;11.33;;
9536;SDS011;4807;48.024;11.726;2023-01-28T09:05:01;18.53;;;10.47;;
9536;SDS011;4807;48.024;11.726;2023-01-28T09:08:11;18.07;;;9.97;;
9536;SDS011;4807;48.024;11.726;2023-01-28T09:11:21;18.67;;;10.70;;
9536;SDS011;4807;48.024;11.726;2023-01-28T09:14:31;19.10;;;11.07;;
9536;SDS011;4807;48.024;11.726;2023-01-28T09:17:40;16.93;;;9.13;;
9536;SDS011;4807;48.024;11.726;2023-01-28T09:20:48;17.67;;;8.87;;
9536;SDS011;4807;48.024;11.726;2023-01-28T09:23:57;17.27;;;11.03;;
9536;SDS011;4807;48.024;11.726;2023-01-28T09:27:06;20.87;;;10.93;;
9536;SDS011;4807;48.024;11.726;2023-01-28T09:30:16;17.17;;;10.07;;
9536;SDS011;4807;48.024;11.726;2023-01-28T09:33:25;17.53;;;10.23;;
9536;SDS011;4807;48.024;11.726;2023-01-28T09:36:33;17.17;;;10.10;;
9536;SDS011;4807;48.024;11.726;2023-01-28T09:39:42;18.43;;;9.57;;
9536;SDS011;4807;48.024;11.726;2023-01-28T09:42:56;16.83;;;9.37;;
9536;SDS011;4807;48.024;11.726;2023-01-28T09:46:27;15.33;;;9.17;;
9536;SDS011;4807;48.024;11.726;2023-01-28T09:49:41;17.43;;;10.00;;
9536;SDS011;4807;48.024;11.726;2023-01-28T09:52:58;15.63;;;9.70;;
9536;SDS011;4807;48.024;11.726;2023-01-28T09:56:14;13.03;;;8.50;;
9536;SDS011;4807;48.024;11.726;2023-01-28T09:59:32;15.67;;;9.57;;
9536;SDS011;4807;48.024;11.726;2023-01-28T10:06:31;16.10;;;9.77;;
9536;SDS011;4807;48.024;11.726;2023-01-28T10:09:55;15.77;;;9.23;;
9536;SDS011;4807;48.024;11.726;2023-01-28T10:13:16;18.87;;;9.13;;
9536;SDS011;4807;48.024;11.726;2023-01-28T10:16:37;16.77;;;10.17;;
9536;SDS011;4807;48.024;11.726;2023-01-28T10:19:56;16.07;;;8.83;;
9536;SDS011;4807;48.024;11.726;2023-01-28T10:23:11;13.90;;;9.03;;
9536;SDS011;4807;48.024;11.726;2023-01-28T10:26:29;15.33;;;8.70;;
9536;SDS011;4807;48.024;11.726;2023-01-28T10:29:42;14.73;;;8.77;;
9536;SDS011;4807;48.024;11.726;2023-01-28T10:32:56;13.10;;;8.30;;
9536;SDS011;4807;48.024;11.726;2023-01-28T10:36:12;12.80;;;7.40;;
9536;SDS011;4807;48.024;11.726;2023-01-28T10:39:24;14.67;;;9.27;;
9536;SDS011;4807;48.024;11.726;2023-01-28T10:42:36;13.07;;;7.87;;
9536;SDS011;4807;48.024;11.726;2023-01-28T10:45:48;16.40;;;8.83;;
9536;SDS011;4807;48.024;11.726;2023-01-28T10:49:06;15.47;;;8.77;;
9536;SDS011;4807;48.024;11.726;2023-01-28T10:52:24;14.90;;;8.10;;
9536;SDS011;4807;48.024;11.726;2023-01-28T10:55:33;14.13;;;8.27;;
9536;SDS011;4807;48.024;11.726;2023-01-28T10:58:56;9.57;;;6.37;;
9536;SDS011;4807;48.024;11.726;2023-01-28T11:05:48;12.57;;;7.37;;
9536;SDS011;4807;48.024;11.726;2023-01-28T11:09:21;9.70;;;6.50;;
9536;SDS011;4807;48.024;11.726;2023-01-28T11:12:31;10.23;;;6.37;;
9536;SDS011;4807;48.024;11.726;2023-01-28T11:15:40;9.80;;;6.83;;
9536;SDS011;4807;48.024;11.726;2023-01-28T11:18:57;13.10;;;6.97;;
9536;SDS011;4807;48.024;11.726;2023-01-28T11:22:18;12.73;;;6.37;;
9536;SDS011;4807;48.024;11.726;2023-01-28T11:25:36;11.77;;;6.60;;
9536;SDS011;4807;48.024;11.726;2023-01-28T11:28:45;10.17;;;6.50;;
9536;SDS011;4807;48.024;11.726;2023-01-28T11:31:53;8.57;;;5.57;;
9536;SDS011;4807;48.024;11.726;2023-01-28T11:35:04;8.33;;;5.67;;
9536;SDS011;4807;48.024;11.726;2023-01-28T11:38:16;7.37;;;5.07;;
9536;SDS011;4807;48.024;11.726;2023-01-28T11:41:30;9.23;;;5.23;;
9536;SDS011;4807;48.024;11.726;2023-01-28T11:44:41;9.07;;;5.20;;
9536;SDS011;4807;48.024;11.726;2023-01-28T11:47:54;9.10;;;6.27;;
9536;SDS011;4807;48.024;11.726;2023-01-28T11:51:28;9.27;;;5.80;;
9536;SDS011;4807;48.024;11.726;2023-01-28T11:54:56;7.20;;;5.23;;
9536;SDS011;4807;48.024;11.726;2023-01-28T11:58:27;8.63;;;6.47;;
9536;SDS011;4807;48.024;11.726;2023-01-28T12:01:49;11.67;;;6.43;;
9536;SDS011;4807;48.024;11.726;2023-01-28T12:05:15;8.93;;;6.50;;
9536;SDS011;4807;48.024;11.726;2023-01-28T12:08:47;11.50;;;7.13;;
9536;SDS011;4807;48.024;11.726;2023-01-28T12:12:19;12.23;;;7.17;;
9536;SDS011;4807;48.024;11.726;2023-01-28T12:19:48;9.73;;;6.03;;
9536;SDS011;4807;48.024;11.726;2023-01-28T12:23:24;10.33;;;7.20;;
9536;SDS011;4807;48.024;11.726;2023-01-28T12:26:51;10.00;;;6.93;;
9536;SDS011;4807;48.024;11.726;2023-01-28T12:30:20;11.90;;;8.60;;
9536;SDS011;4807;48.024;11.726;2023-01-28T12:33:54;12.37;;;7.60;;
9536;SDS011;4807;48.024;11.726;2023-01-28T12:37:33;11.73;;;8.40;;
9536;SDS011;4807;48.024;11.726;2023-01-28T12:40:59;10.83;;;7.77;;
9536;SDS011;4807;48.024;11.726;2023-01-28T12:44:15;11.40;;;7.17;;
9536;SDS011;4807;48.024;11.726;2023-01-28T12:47:33;11.07;;;7.43;;
9536;SDS011;4807;48.024;11.726;2023-01-28T12:50:47;9.77;;;7.50;;
9536;SDS011;4807;48.024;11.726;2023-01-28T12:54:05;12.43;;;8.77;;
9536;SDS011;4807;48.024;11.726;2023-01-28T12:57:27;11.63;;;7.97;;
9536;SDS011;4807;48.024;11.726;2023-01-28T13:00:38;11.40;;;7.63;;
9536;SDS011;4807;48.024;11.726;2023-01-28T13:03:57;12.83;;;8.33;;
9536;SDS011;4807;48.024;11.726;2023-01-28T13:07:16;11.77;;;8.03;;
9536;SDS011;4807;48.024;11.726;2023-01-28T13:10:32;11.90;;;8.57;;
9536;SDS011;4807;48.024;11.726;2023-01-28T13:13:47;11.27;;;8.27;;
9536;SDS011;4807;48.024;11.726;2023-01-28T13:16:55;12.87;;;8.93;;
9536;SDS011;4807;48.024;11.726;2023-01-28T13:20:16;13.67;;;9.17;;
9536;SDS011;4807;48.024;11.726;2023-01-28T13:23:39;14.43;;;8.83;;
9536;SDS011;4807;48.024;11.726;2023-01-28T13:26:51;13.33;;;8.70;;
9536;SDS011;4807;48.024;11.726;2023-01-28T13:30:04;12.33;;;8.60;;
9536;SDS011;4807;48.024;11.726;2023-01-28T13:33:31;11.13;;;7.40;;
9536;SDS011;4807;48.024;11.726;2023-01-28T13:36:42;12.30;;;8.30;;
9536;SDS011;4807;48.024;11.726;2023-01-28T13:39:57;13.63;;;8.33;;
9536;SDS011;4807;48.024;11.726;2023-01-28T13:43:25;11.50;;;7.97;;
9536;SDS011;4807;48.024;11.726;2023-01-28T13:46:44;9.80;;;7.73;;
9536;SDS011;4807;48.024;11.726;2023-01-28T13:49:54;11.70;;;8.60;;
9536;SDS011;4807;48.024;11.726;2023-01-28T13:53:20;12.13;;;8.60;;
9536;SDS011;4807;48.024;11.726;2023-01-28T13:56:48;13.63;;;8.73;;
9536;SDS011;4807;48.024;11.726;2023-01-28T14:00:27;10.60;;;8.03;;
9536;SDS011;4807;48.024;11.726;2023-01-28T14:03:50;11.63;;;7.47;;
9536;SDS011;4807;48.024;11.726;2023-01-28T14:07:39;15.20;;;8.20;;
9536;SDS011;4807;48.024;11.726;2023-01-28T14:11:21;12.37;;;8.23;;
9536;SDS011;4807;48.024;11.726;2023-01-28T14:15:27;13.87;;;8.43;;
9536;SDS011;4807;48.024;11.726;2023-01-28T14:19:05;12.17;;;7.87;;
9536;SDS011;4807;48.024;11.726;2023-01-28T14:22:20;13.50;;;8.20;;
9536;SDS011;4807;48.024;11.726;2023-01-28T14:25:31;13.40;;;8.73;;
9536;SDS011;4807;48.024;11.726;2023-01-28T14:29:15;13.10;;;8.20;;
9536;SDS011;4807;48.024;11.726;2023-01-28T14:32:43;13.57;;;8.23;;
9536;SDS011;4807;48.024;11.726;2023-01-28T14:35:54;12.07;;;7.90;;
9536;SDS011;4807;48.024;11.726;2023-01-28T14:39:03;10.50;;;8.37;;
9536;SDS011;4807;48.024;11.726;2023-01-28T14:42:18;11.13;;;8.00;;
9536;SDS011;4807;48.024;11.726;2023-01-28T14:45:40;11.47;;;7.07;;
9536;SDS011;4807;48.024;11.726;2023-01-28T14:49:16;11.30;;;6.90;;
9536;SDS011;4807;48.024;11.726;2023-01-28T14:52:45;12.20;;;7.73;;
9536;SDS011;4807;48.024;11.726;2023-01-28T14:56:26;21.47;;;12.80;;
9536;SDS011;4807;48.024;11.726;2023-01-28T14:59:49;17.10;;;10.30;;
9536;SDS011;4807;48.024;11.726;2023-01-28T15:03:08;15.03;;;9.17;;
9536;SDS011;4807;48.024;11.726;2023-01-28T15:06:33;12.60;;;8.43;;
9536;SDS011;4807;48.024;11.726;2023-01-28T15:09:42;13.43;;;8.90;;
9536;SDS011;4807;48.024;11.726;2023-01-28T15:12:52;16.23;;;10.37;;
9536;SDS011;4807;48.024;11.726;2023-01-28T15:16:05;19.17;;;11.53;;
9536;SDS011;4807;48.024;11.726;2023-01-28T15:19:16;11.73;;;7.80;;
9536;SDS011;4807;48.024;11.726;2023-01-28T15:22:32;13.23;;;6.77;;
9536;SDS011;4807;48.024;11.726;2023-01-28T15:25:41;11.37;;;7.73;;
9536;SDS011;4807;48.024;11.726;2023-01-28T15:28:51;13.70;;;8.47;;
9536;SDS011;4807;48.024;11.726;2023-01-28T15:32:01;12.40;;;8.00;;
9536;SDS011;4807;48.024;11.726;2023-01-28T15:35:13;10.30;;;7.57;;
9536;SDS011;4807;48.024;11.726;2023-01-28T15:38:21;12.73;;;7.57;;
9536;SDS011;4807;48.024;11.726;2023-01-28T15:41:33;12.63;;;7.77;;
9536;SDS011;4807;48.024;11.726;2023-01-28T15:44:47;11.23;;;7.60;;
9536;SDS011;4807;48.024;11.726;2023-01-28T15:48:02;13.43;;;8.03;;
9536;SDS011;4807;48.024;11.726;2023-01-28T15:51:19;15.10;;;8.97;;
9536;SDS011;4807;48.024;11.726;2023-01-28T15:54:31;16.40;;;8.70;;
9536;SDS011;4807;48.024;11.726;2023-01-28T15:57:44;11.63;;;7.50;;
9536;SDS011;4807;48.024;11.726;2023-01-28T16:01:00;11.60;;;7.50;;
9536;SDS011;4807;48.024;11.726;2023-01-28T16:04:26;14.17;;;8.17;;
9536;SDS011;4807;48.024;11.726;2023-01-28T16:07:43;11.87;;;7.77;;
9536;SDS011;4807;48.024;11.726;2023-01-28T16:10:52;13.83;;;8.13;;
9536;SDS011;4807;48.024;11.726;2023-01-28T16:14:03;13.60;;;8.57;;
9536;SDS011;4807;48.024;11.726;2023-01-28T16:17:14;10.63;;;6.80;;
9536;SDS011;4807;48.024;11.726;2023-01-28T16:20:26;14.03;;;7.40;;
9536;SDS011;4807;48.024;11.726;2023-01-28T16:23:38;12.80;;;7.77;;
9536;SDS011;4807;48.024;11.726;2023-01-28T16:26:54;13.83;;;7.57;;
9536;SDS011;4807;48.024;11.726;2023-01-28T16:30:04;14.03;;;8.40;;
9536;SDS011;4807;48.024;11.726;2023-01-28T16:33:16;12.87;;;8.77;;
9536;SDS011;4807;48.024;11.726;2023-01-28T16:36:27;14.03;;;8.73;;
9536;SDS011;4807;48.024;11.726;2023-01-28T16:39:36;14.50;;;9.20;;
9536;SDS011;4807;48.024;11.726;2023-01-28T16:42:44;14.10;;;8.53;;
9536;SDS011;4807;48.024;11.726;2023-01-28T16:45:53;15.30;;;8.23;;
9536;SDS011;4807;48.024;11.726;2023-01-28T16:49:02;16.20;;;9.47;;
9536;SDS011;4807;48.024;11.726;2023-01-28T16:52:10;14.10;;;9.10;;
9536;SDS011;4807;48.024;11.726;2023-01-28T16:55:20;14.27;;;9.13;;
9536;SDS011;4807;48.024;11.726;2023-01-28T16:58:29;16.53;;;9.87;;
9536;SDS011;4807;48.024;11.726;2023-01-28T17:01:37;17.30;;;10.17;;
9536;SDS011;4807;48.024;11.726;2023-01-28T17:04:46;15.50;;;9.17;;
9536;SDS011;4807;48.024;11.726;2023-01-28T17:07:54;13.27;;;9.00;;
9536;SDS011;4807;48.024;11.726;2023-01-28T17:11:06;13.83;;;9.93;;
9536;SDS011;4807;48.024;11.726;2023-01-28T17:14:14;19.00;;;13.80;;
9536;SDS011;4807;48.024;11.726;2023-01-28T17:17:22;16.03;;;11.03;;
9536;SDS011;4807;48.024;11.726;2023-01-28T17:20:30;16.93;;;9.90;;
9536;SDS011;4807;48.024;11.726;2023-01-28T17:23:42;17.63;;;9.90;;
9536;SDS011;4807;48.024;11.726;2023-01-28T17:26:52;18.50;;;9.67;;
9536;SDS011;4807;48.024;11.726;2023-01-28T17:30:00;15.23;;;10.27;;
9536;SDS011;4807;48.024;11.726;2023-01-28T17:33:08;17.60;;;11.53;;
9536;SDS011;4807;48.024;11.726;2023-01-28T17:36:17;14.63;;;9.97;;
9536;SDS011;4807;48.024;11.726;2023-01-28T17:39:25;16.13;;;9.87;;
9536;SDS011;4807;48.024;11.726;2023-01-28T17:42:34;14.10;;;9.00;;
9536;SDS011;4807;48.024;11.726;2023-01-28T17:45:42;17.37;;;9.37;;
9536;SDS011;4807;48.024;11.726;2023-01-28T17:48:50;13.40;;;9.00;;
9536;SDS011;4807;48.024;11.726;2023-01-28T17:51:59;15.80;;;10.53;;
9536;SDS011;4807;48.024;11.726;2023-01-28T17:55:07;16.93;;;10.07;;
9536;SDS011;4807;48.024;11.726;2023-01-28T17:58:18;17.40;;;10.90;;
9536;SDS011;4807;48.024;11.726;2023-01-28T18:01:27;16.27;;;9.47;;
9536;SDS011;4807;48.024;11.726;2023-01-28T18:04:36;19.43;;;10.07;;
9536;SDS011;4807;48.024;11.726;2023-01-28T18:07:45;16.63;;;11.17;;
9536;SDS011;4807;48.024;11.726;2023-01-28T18:10:55;15.37;;;9.80;;
9536;SDS011;4807;48.024;11.726;2023-01-28T18:14:05;16.53;;;9.77;;
9536;SDS011;4807;48.024;11.726;2023-01-28T18:17:13;17.13;;;9.90;;
9536;SDS011;4807;48.024;11.726;2023-01-28T18:20:21;15.20;;;9.77;;
9536;SDS011;4807;48.024;11.726;2023-01-28T18:23:30;17.63;;;10.60;;
9536;SDS011;4807;48.024;11.726;2023-01-28T18:26:39;19.30;;;10.87;;
9536;SDS011;4807;48.024;11.726;2023-01-28T18:29:49;12.93;;;9.47;;
9536;SDS011;4807;48.024;11.726;2023-01-28T18:32:57;16.70;;;10.67;;
9536;SDS011;4807;48.024;11.726;2023-01-28T18:36:06;14.40;;;8.87;;
9536;SDS011;4807;48.024;11.726;2023-01-28T18:39:16;12.50;;;7.97;;
9536;SDS011;4807;48.024;11.726;2023-01-28T18:42:25;12.70;;;7.90;;
9536;SDS011;4807;48.024;11.726;2023-01-28T18:45:37;13.20;;;8.00;;
9536;SDS011;4807;48.024;11.726;2023-01-28T18:48:47;14.77;;;8.10;;
9536;SDS011;4807;48.024;11.726;2023-01-28T18:51:55;14.47;;;7.93;;
9536;SDS011;4807;48.024;11.726;2023-01-28T18:55:04;15.73;;;8.93;;
9536;SDS011;4807;48.024;11.726;2023-01-28T18:58:14;14.23;;;9.57;;
9536;SDS011;4807;48.024;11.726;2023-01-28T19:01:24;16.97;;;9.63;;
9536;SDS011;4807;48.024;11.726;2023-01-28T19:04:34;15.70;;;9.43;;
9536;SDS011;4807;48.024;11.726;2023-01-28T19:07:42;15.77;;;9.13;;
9536;SDS011;4807;48.024;11.726;2023-01-28T19:10:53;14.83;;;8.30;;
9536;SDS011;4807;48.024;11.726;2023-01-28T19:14:02;16.83;;;9.83;;
9536;SDS011;4807;48.024;11.726;2023-01-28T19:17:12;16.43;;;9.33;;
9536;SDS011;4807;48.024;11.726;2023-01-28T19:20:21;15.43;;;9.30;;
9536;SDS011;4807;48.024;11.726;2023-01-28T19:23:30;13.97;;;9.03;;
9536;SDS011;4807;48.024;11.726;2023-01-28T19:26:54;17.17;;;9.47;;
9536;SDS011;4807;48.024;11.726;2023-01-28T19:30:03;17.93;;;10.20;;
9536;SDS011;4807;48.024;11.726;2023-01-28T19:33:14;16.93;;;10.23;;
9536;SDS011;4807;48.024;11.726;2023-01-28T19:36:22;17.37;;;10.87;;
9536;SDS011;4807;48.024;11.726;2023-01-28T19:39:32;17.23;;;10.17;;
9536;SDS011;4807;48.024;11.726;2023-01-28T19:42:40;16.23;;;9.50;;